sensor_id;sensor_type;location;lat;lon;timestamp;temperature;humidity
35700;DHT22;21818;51.078;12.108;2023-07-24T00:00:23;22.20;78.10
35700;DHT22;21818;51.078;12.108;2023-07-24T00:02:49;22.20;78.30
35700;DHT22;21818;51.078;12.108;2023-07-24T00:05:14;22.20;78.10
35700;DHT22;21818;51.078;12.108;2023-07-24T00:07:40;22.30;78.00
35700;DHT22;21818;51.078;12.108;2023-07-24T00:10:06;22.30;78.00
35700;DHT22;21818;51.078;12.108;2023-07-24T00:12:32;22.20;78.10
35700;DHT22;21818;51.078;12.108;2023-07-24T00:14:58;22.20;78.40
35700;DHT22;21818;51.078;12.108;2023-07-24T00:17:23;22.00;78.80
35700;DHT22;21818;51.078;12.108;2023-07-24T00:19:49;22.00;79.10
35700;DHT22;21818;51.078;12.108;2023-07-24T00:22:15;21.90;79.40
35700;DHT22;21818;51.078;12.108;2023-07-24T00:24:40;21.80;79.40
35700;DHT22;21818;51.078;12.108;2023-07-24T00:27:06;21.90;79.50
35700;DHT22;21818;51.078;12.108;2023-07-24T00:29:32;21.70;79.80
35700;DHT22;21818;51.078;12.108;2023-07-24T00:31:57;21.70;80.00
35700;DHT22;21818;51.078;12.108;2023-07-24T00:34:23;21.80;79.90
35700;DHT22;21818;51.078;12.108;2023-07-24T00:36:48;21.80;79.70
35700;DHT22;21818;51.078;12.108;2023-07-24T00:39:14;21.80;79.70
35700;DHT22;21818;51.078;12.108;2023-07-24T00:41:40;21.80;80.30
35700;DHT22;21818;51.078;12.108;2023-07-24T00:44:06;21.70;80.00
35700;DHT22;21818;51.078;12.108;2023-07-24T00:46:33;21.60;80.30
35700;DHT22;21818;51.078;12.108;2023-07-24T00:48:59;21.70;80.40
35700;DHT22;21818;51.078;12.108;2023-07-24T00:51:26;21.70;80.10
35700;DHT22;21818;51.078;12.108;2023-07-24T00:54:03;21.80;79.90
35700;DHT22;21818;51.078;12.108;2023-07-24T00:56:30;21.90;79.60
35700;DHT22;21818;51.078;12.108;2023-07-24T00:58:57;21.90;79.40
35700;DHT22;21818;51.078;12.108;2023-07-24T01:01:23;21.90;79.30
35700;DHT22;21818;51.078;12.108;2023-07-24T01:03:50;21.90;79.20
35700;DHT22;21818;51.078;12.108;2023-07-24T01:06:16;21.90;79.20
35700;DHT22;21818;51.078;12.108;2023-07-24T01:08:41;22.00;79.00
35700;DHT22;21818;51.078;12.108;2023-07-24T01:11:15;22.00;78.80
35700;DHT22;21818;51.078;12.108;2023-07-24T01:16:21;22.00;78.50
35700;DHT22;21818;51.078;12.108;2023-07-24T01:18:51;21.90;78.60
35700;DHT22;21818;51.078;12.108;2023-07-24T01:21:20;21.90;78.50
35700;DHT22;21818;51.078;12.108;2023-07-24T01:23:58;22.00;78.30
35700;DHT22;21818;51.078;12.108;2023-07-24T01:26:25;22.10;77.90
35700;DHT22;21818;51.078;12.108;2023-07-24T01:28:51;22.10;77.70
35700;DHT22;21818;51.078;12.108;2023-07-24T01:31:16;22.10;77.90
35700;DHT22;21818;51.078;12.108;2023-07-24T01:33:43;22.10;77.90
35700;DHT22;21818;51.078;12.108;2023-07-24T01:36:10;22.00;77.80
35700;DHT22;21818;51.078;12.108;2023-07-24T01:38:36;22.10;77.90
35700;DHT22;21818;51.078;12.108;2023-07-24T01:41:05;22.10;77.70
35700;DHT22;21818;51.078;12.108;2023-07-24T01:43:31;22.10;77.70
35700;DHT22;21818;51.078;12.108;2023-07-24T01:45:58;22.10;77.60
35700;DHT22;21818;51.078;12.108;2023-07-24T01:48:23;22.00;77.60
35700;DHT22;21818;51.078;12.108;2023-07-24T01:50:49;22.00;77.70
35700;DHT22;21818;51.078;12.108;2023-07-24T01:53:15;22.00;77.70
35700;DHT22;21818;51.078;12.108;2023-07-24T01:55:41;22.00;77.70
35700;DHT22;21818;51.078;12.108;2023-07-24T01:58:07;22.10;77.60
35700;DHT22;21818;51.078;12.108;2023-07-24T02:00:32;22.10;77.50
35700;DHT22;21818;51.078;12.108;2023-07-24T02:02:58;22.10;77.50
35700;DHT22;21818;51.078;12.108;2023-07-24T02:05:24;22.00;77.60
35700;DHT22;21818;51.078;12.108;2023-07-24T02:07:49;22.00;77.70
35700;DHT22;21818;51.078;12.108;2023-07-24T02:10:15;22.00;77.80
35700;DHT22;21818;51.078;12.108;2023-07-24T02:12:40;21.90;77.80
35700;DHT22;21818;51.078;12.108;2023-07-24T02:15:07;21.90;77.90
35700;DHT22;21818;51.078;12.108;2023-07-24T02:17:32;21.80;78.00
35700;DHT22;21818;51.078;12.108;2023-07-24T02:19:58;21.80;78.10
35700;DHT22;21818;51.078;12.108;2023-07-24T02:22:24;21.80;78.00
35700;DHT22;21818;51.078;12.108;2023-07-24T02:24:50;21.80;78.00
35700;DHT22;21818;51.078;12.108;2023-07-24T02:27:26;21.80;78.10
35700;DHT22;21818;51.078;12.108;2023-07-24T02:29:52;21.80;78.00
35700;DHT22;21818;51.078;12.108;2023-07-24T02:32:18;21.90;77.90
35700;DHT22;21818;51.078;12.108;2023-07-24T02:34:47;21.90;77.70
35700;DHT22;21818;51.078;12.108;2023-07-24T02:37:12;22.00;77.60
35700;DHT22;21818;51.078;12.108;2023-07-24T02:39:38;22.00;77.60
35700;DHT22;21818;51.078;12.108;2023-07-24T02:42:04;21.90;77.70
35700;DHT22;21818;51.078;12.108;2023-07-24T02:44:29;21.90;77.90
35700;DHT22;21818;51.078;12.108;2023-07-24T02:46:55;21.90;77.90
35700;DHT22;21818;51.078;12.108;2023-07-24T02:49:20;21.80;77.90
35700;DHT22;21818;51.078;12.108;2023-07-24T02:51:46;21.80;78.10
35700;DHT22;21818;51.078;12.108;2023-07-24T02:54:12;21.80;78.10
35700;DHT22;21818;51.078;12.108;2023-07-24T02:56:37;21.80;78.00
35700;DHT22;21818;51.078;12.108;2023-07-24T02:59:04;21.60;78.20
35700;DHT22;21818;51.078;12.108;2023-07-24T03:01:29;21.70;78.40
35700;DHT22;21818;51.078;12.108;2023-07-24T03:03:55;21.70;78.20
35700;DHT22;21818;51.078;12.108;2023-07-24T03:06:21;21.70;78.20
35700;DHT22;21818;51.078;12.108;2023-07-24T03:08:46;21.70;78.20
35700;DHT22;21818;51.078;12.108;2023-07-24T03:11:12;21.70;78.20
35700;DHT22;21818;51.078;12.108;2023-07-24T03:13:37;21.60;78.30
35700;DHT22;21818;51.078;12.108;2023-07-24T03:16:06;21.60;78.30
35700;DHT22;21818;51.078;12.108;2023-07-24T03:18:31;21.50;78.40
35700;DHT22;21818;51.078;12.108;2023-07-24T03:20:58;21.30;78.80
35700;DHT22;21818;51.078;12.108;2023-07-24T03:23:24;21.10;79.40
35700;DHT22;21818;51.078;12.108;2023-07-24T03:25:50;21.10;79.70
35700;DHT22;21818;51.078;12.108;2023-07-24T03:28:15;21.00;80.00
35700;DHT22;21818;51.078;12.108;2023-07-24T03:30:41;20.90;80.40
35700;DHT22;21818;51.078;12.108;2023-07-24T03:33:06;20.80;80.60
35700;DHT22;21818;51.078;12.108;2023-07-24T03:35:32;20.80;81.00
35700;DHT22;21818;51.078;12.108;2023-07-24T03:37:58;20.90;81.00
35700;DHT22;21818;51.078;12.108;2023-07-24T03:40:24;21.00;80.80
35700;DHT22;21818;51.078;12.108;2023-07-24T03:42:49;21.00;80.80
35700;DHT22;21818;51.078;12.108;2023-07-24T03:45:15;21.10;80.70
35700;DHT22;21818;51.078;12.108;2023-07-24T03:47:40;21.10;80.50
35700;DHT22;21818;51.078;12.108;2023-07-24T03:50:06;21.00;81.20
35700;DHT22;21818;51.078;12.108;2023-07-24T03:52:32;21.00;80.60
35700;DHT22;21818;51.078;12.108;2023-07-24T03:54:57;21.00;80.60
35700;DHT22;21818;51.078;12.108;2023-07-24T03:57:23;21.00;80.50
35700;DHT22;21818;51.078;12.108;2023-07-24T03:59:48;21.10;80.60
35700;DHT22;21818;51.078;12.108;2023-07-24T04:02:14;21.00;80.60
35700;DHT22;21818;51.078;12.108;2023-07-24T04:04:40;21.00;80.70
35700;DHT22;21818;51.078;12.108;2023-07-24T04:07:05;21.00;80.60
35700;DHT22;21818;51.078;12.108;2023-07-24T04:09:31;21.10;80.70
35700;DHT22;21818;51.078;12.108;2023-07-24T04:11:57;21.10;80.80
35700;DHT22;21818;51.078;12.108;2023-07-24T04:14:22;21.00;80.90
35700;DHT22;21818;51.078;12.108;2023-07-24T04:16:48;20.90;81.00
35700;DHT22;21818;51.078;12.108;2023-07-24T04:19:13;20.80;81.30
35700;DHT22;21818;51.078;12.108;2023-07-24T04:21:39;20.70;81.90
35700;DHT22;21818;51.078;12.108;2023-07-24T04:24:05;20.60;82.80
35700;DHT22;21818;51.078;12.108;2023-07-24T04:26:30;20.50;82.80
35700;DHT22;21818;51.078;12.108;2023-07-24T04:28:56;20.50;83.20
35700;DHT22;21818;51.078;12.108;2023-07-24T04:31:22;20.50;82.90
35700;DHT22;21818;51.078;12.108;2023-07-24T04:33:47;20.60;83.00
35700;DHT22;21818;51.078;12.108;2023-07-24T04:36:13;20.70;82.80
35700;DHT22;21818;51.078;12.108;2023-07-24T04:38:38;20.70;82.60
35700;DHT22;21818;51.078;12.108;2023-07-24T04:41:04;20.70;82.80
35700;DHT22;21818;51.078;12.108;2023-07-24T04:43:30;20.60;83.00
35700;DHT22;21818;51.078;12.108;2023-07-24T04:45:55;20.60;83.00
35700;DHT22;21818;51.078;12.108;2023-07-24T04:48:21;20.70;83.00
35700;DHT22;21818;51.078;12.108;2023-07-24T04:50:52;20.70;82.80
35700;DHT22;21818;51.078;12.108;2023-07-24T04:53:17;20.80;82.50
35700;DHT22;21818;51.078;12.108;2023-07-24T04:55:45;20.90;82.80
35700;DHT22;21818;51.078;12.108;2023-07-24T04:58:11;20.80;82.20
35700;DHT22;21818;51.078;12.108;2023-07-24T05:00:37;20.90;81.90
35700;DHT22;21818;51.078;12.108;2023-07-24T05:03:02;21.00;81.80
35700;DHT22;21818;51.078;12.108;2023-07-24T05:05:28;21.00;81.50
35700;DHT22;21818;51.078;12.108;2023-07-24T05:07:53;21.10;81.30
35700;DHT22;21818;51.078;12.108;2023-07-24T05:10:19;21.10;81.10
35700;DHT22;21818;51.078;12.108;2023-07-24T05:12:44;21.00;81.00
35700;DHT22;21818;51.078;12.108;2023-07-24T05:15:10;21.10;81.10
35700;DHT22;21818;51.078;12.108;2023-07-24T05:17:36;21.10;81.10
35700;DHT22;21818;51.078;12.108;2023-07-24T05:20:01;21.10;81.10
35700;DHT22;21818;51.078;12.108;2023-07-24T05:22:27;21.20;80.90
35700;DHT22;21818;51.078;12.108;2023-07-24T05:24:53;21.30;80.70
35700;DHT22;21818;51.078;12.108;2023-07-24T05:27:18;21.40;80.40
35700;DHT22;21818;51.078;12.108;2023-07-24T05:29:44;21.50;80.10
35700;DHT22;21818;51.078;12.108;2023-07-24T05:32:10;21.50;79.80
35700;DHT22;21818;51.078;12.108;2023-07-24T05:34:35;21.60;79.80
35700;DHT22;21818;51.078;12.108;2023-07-24T05:37:01;21.60;79.50
35700;DHT22;21818;51.078;12.108;2023-07-24T05:39:26;21.70;79.30
35700;DHT22;21818;51.078;12.108;2023-07-24T05:41:52;21.80;79.10
35700;DHT22;21818;51.078;12.108;2023-07-24T05:44:18;21.90;78.80
35700;DHT22;21818;51.078;12.108;2023-07-24T05:46:43;21.90;78.50
35700;DHT22;21818;51.078;12.108;2023-07-24T05:49:09;21.90;78.40
35700;DHT22;21818;51.078;12.108;2023-07-24T05:51:34;22.00;78.20
35700;DHT22;21818;51.078;12.108;2023-07-24T05:54:00;22.00;78.00
35700;DHT22;21818;51.078;12.108;2023-07-24T05:56:25;22.10;77.90
35700;DHT22;21818;51.078;12.108;2023-07-24T05:58:51;22.10;77.70
35700;DHT22;21818;51.078;12.108;2023-07-24T06:01:16;22.20;77.60
35700;DHT22;21818;51.078;12.108;2023-07-24T06:03:42;22.20;77.40
35700;DHT22;21818;51.078;12.108;2023-07-24T06:06:08;22.30;77.20
35700;DHT22;21818;51.078;12.108;2023-07-24T06:08:33;22.30;77.60
35700;DHT22;21818;51.078;12.108;2023-07-24T06:10:59;22.30;76.90
35700;DHT22;21818;51.078;12.108;2023-07-24T06:13:24;22.30;76.80
35700;DHT22;21818;51.078;12.108;2023-07-24T06:15:51;22.40;76.70
35700;DHT22;21818;51.078;12.108;2023-07-24T06:18:17;22.40;76.60
35700;DHT22;21818;51.078;12.108;2023-07-24T06:20:43;22.50;76.50
35700;DHT22;21818;51.078;12.108;2023-07-24T06:23:08;22.50;76.40
35700;DHT22;21818;51.078;12.108;2023-07-24T06:25:34;22.50;76.30
35700;DHT22;21818;51.078;12.108;2023-07-24T06:27:59;22.50;76.20
35700;DHT22;21818;51.078;12.108;2023-07-24T06:30:25;22.60;76.10
35700;DHT22;21818;51.078;12.108;2023-07-24T06:32:51;22.60;76.00
35700;DHT22;21818;51.078;12.108;2023-07-24T06:35:16;22.60;75.90
35700;DHT22;21818;51.078;12.108;2023-07-24T06:37:42;22.60;75.90
35700;DHT22;21818;51.078;12.108;2023-07-24T06:40:08;22.60;75.70
35700;DHT22;21818;51.078;12.108;2023-07-24T06:42:34;22.60;75.70
35700;DHT22;21818;51.078;12.108;2023-07-24T06:45:00;22.60;75.50
35700;DHT22;21818;51.078;12.108;2023-07-24T06:47:25;22.60;75.50
35700;DHT22;21818;51.078;12.108;2023-07-24T06:49:51;22.70;75.50
35700;DHT22;21818;51.078;12.108;2023-07-24T06:52:17;22.70;75.40
35700;DHT22;21818;51.078;12.108;2023-07-24T06:54:42;22.70;75.30
35700;DHT22;21818;51.078;12.108;2023-07-24T06:57:08;22.70;75.20
35700;DHT22;21818;51.078;12.108;2023-07-24T06:59:33;22.80;75.20
35700;DHT22;21818;51.078;12.108;2023-07-24T07:01:59;22.80;75.10
35700;DHT22;21818;51.078;12.108;2023-07-24T07:04:24;22.80;75.00
35700;DHT22;21818;51.078;12.108;2023-07-24T07:06:50;22.80;74.90
35700;DHT22;21818;51.078;12.108;2023-07-24T07:09:15;22.80;74.90
35700;DHT22;21818;51.078;12.108;2023-07-24T07:11:41;22.80;74.80
35700;DHT22;21818;51.078;12.108;2023-07-24T07:14:09;22.90;74.70
35700;DHT22;21818;51.078;12.108;2023-07-24T07:16:34;22.90;74.70
35700;DHT22;21818;51.078;12.108;2023-07-24T07:19:00;22.90;75.10
35700;DHT22;21818;51.078;12.108;2023-07-24T07:21:25;22.90;74.50
35700;DHT22;21818;51.078;12.108;2023-07-24T07:23:51;23.00;74.50
35700;DHT22;21818;51.078;12.108;2023-07-24T07:26:17;23.00;74.40
35700;DHT22;21818;51.078;12.108;2023-07-24T07:28:42;23.00;74.40
35700;DHT22;21818;51.078;12.108;2023-07-24T07:31:10;23.00;74.30
35700;DHT22;21818;51.078;12.108;2023-07-24T07:33:36;23.00;74.20
35700;DHT22;21818;51.078;12.108;2023-07-24T07:36:02;23.00;74.20
35700;DHT22;21818;51.078;12.108;2023-07-24T07:38:29;23.00;74.20
35700;DHT22;21818;51.078;12.108;2023-07-24T07:40:55;23.00;74.20
35700;DHT22;21818;51.078;12.108;2023-07-24T07:43:20;23.00;74.20
35700;DHT22;21818;51.078;12.108;2023-07-24T07:45:47;23.00;74.30
35700;DHT22;21818;51.078;12.108;2023-07-24T07:48:13;23.00;74.30
35700;DHT22;21818;51.078;12.108;2023-07-24T07:50:38;23.00;74.30
35700;DHT22;21818;51.078;12.108;2023-07-24T07:53:04;23.00;74.40
35700;DHT22;21818;51.078;12.108;2023-07-24T07:55:30;23.00;74.40
35700;DHT22;21818;51.078;12.108;2023-07-24T07:57:55;23.00;74.40
35700;DHT22;21818;51.078;12.108;2023-07-24T08:00:21;22.90;74.30
35700;DHT22;21818;51.078;12.108;2023-07-24T08:02:47;22.90;74.30
35700;DHT22;21818;51.078;12.108;2023-07-24T08:05:12;23.00;74.30
35700;DHT22;21818;51.078;12.108;2023-07-24T08:07:38;22.90;74.30
35700;DHT22;21818;51.078;12.108;2023-07-24T08:10:04;22.90;74.80
35700;DHT22;21818;51.078;12.108;2023-07-24T08:12:30;22.90;74.20
35700;DHT22;21818;51.078;12.108;2023-07-24T08:14:55;23.00;74.20
35700;DHT22;21818;51.078;12.108;2023-07-24T08:17:21;22.90;74.20
35700;DHT22;21818;51.078;12.108;2023-07-24T08:19:46;22.90;74.10
35700;DHT22;21818;51.078;12.108;2023-07-24T08:22:12;22.90;74.10
35700;DHT22;21818;51.078;12.108;2023-07-24T08:24:38;23.00;74.10
35700;DHT22;21818;51.078;12.108;2023-07-24T08:27:03;22.90;74.10
35700;DHT22;21818;51.078;12.108;2023-07-24T08:29:29;23.00;74.30
35700;DHT22;21818;51.078;12.108;2023-07-24T08:31:55;23.00;74.10
35700;DHT22;21818;51.078;12.108;2023-07-24T08:34:20;22.90;74.00
35700;DHT22;21818;51.078;12.108;2023-07-24T08:36:46;23.00;74.10
35700;DHT22;21818;51.078;12.108;2023-07-24T08:39:11;23.00;74.00
35700;DHT22;21818;51.078;12.108;2023-07-24T08:41:37;23.00;74.00
35700;DHT22;21818;51.078;12.108;2023-07-24T08:44:08;23.00;74.00
35700;DHT22;21818;51.078;12.108;2023-07-24T08:46:37;23.00;74.00
35700;DHT22;21818;51.078;12.108;2023-07-24T08:49:04;23.00;74.00
35700;DHT22;21818;51.078;12.108;2023-07-24T08:51:30;23.00;73.90
35700;DHT22;21818;51.078;12.108;2023-07-24T08:53:57;23.00;73.90
35700;DHT22;21818;51.078;12.108;2023-07-24T08:56:23;23.00;73.90
35700;DHT22;21818;51.078;12.108;2023-07-24T08:58:48;23.00;73.80
35700;DHT22;21818;51.078;12.108;2023-07-24T09:01:14;23.00;73.80
35700;DHT22;21818;51.078;12.108;2023-07-24T09:03:40;23.00;73.80
35700;DHT22;21818;51.078;12.108;2023-07-24T09:06:05;23.00;73.80
35700;DHT22;21818;51.078;12.108;2023-07-24T09:11:02;23.00;73.80
35700;DHT22;21818;51.078;12.108;2023-07-24T09:13:29;23.00;73.70
35700;DHT22;21818;51.078;12.108;2023-07-24T09:15:55;23.00;73.70
35700;DHT22;21818;51.078;12.108;2023-07-24T09:18:21;23.00;73.70
35700;DHT22;21818;51.078;12.108;2023-07-24T09:20:47;23.00;73.60
35700;DHT22;21818;51.078;12.108;2023-07-24T09:23:14;23.00;73.60
35700;DHT22;21818;51.078;12.108;2023-07-24T09:25:41;23.00;73.60
35700;DHT22;21818;51.078;12.108;2023-07-24T09:30:37;23.00;73.60
35700;DHT22;21818;51.078;12.108;2023-07-24T09:33:03;23.10;73.60
35700;DHT22;21818;51.078;12.108;2023-07-24T09:35:29;23.00;73.50
35700;DHT22;21818;51.078;12.108;2023-07-24T09:38:07;23.10;73.50
35700;DHT22;21818;51.078;12.108;2023-07-24T09:40:43;23.00;73.40
35700;DHT22;21818;51.078;12.108;2023-07-24T09:43:19;23.10;73.50
35700;DHT22;21818;51.078;12.108;2023-07-24T09:45:47;23.10;73.50
35700;DHT22;21818;51.078;12.108;2023-07-24T09:48:14;23.10;73.40
35700;DHT22;21818;51.078;12.108;2023-07-24T09:50:41;23.10;73.40
35700;DHT22;21818;51.078;12.108;2023-07-24T09:53:22;23.10;73.40
35700;DHT22;21818;51.078;12.108;2023-07-24T09:55:54;23.10;73.30
35700;DHT22;21818;51.078;12.108;2023-07-24T09:58:21;23.10;73.30
35700;DHT22;21818;51.078;12.108;2023-07-24T10:00:48;23.10;73.30
35700;DHT22;21818;51.078;12.108;2023-07-24T10:03:14;23.10;73.30
35700;DHT22;21818;51.078;12.108;2023-07-24T10:05:44;23.10;73.30
35700;DHT22;21818;51.078;12.108;2023-07-24T10:08:11;23.10;73.30
35700;DHT22;21818;51.078;12.108;2023-07-24T10:10:38;23.10;73.20
35700;DHT22;21818;51.078;12.108;2023-07-24T10:13:04;23.10;73.20
35700;DHT22;21818;51.078;12.108;2023-07-24T10:15:31;23.10;73.20
35700;DHT22;21818;51.078;12.108;2023-07-24T10:18:07;23.10;73.20
35700;DHT22;21818;51.078;12.108;2023-07-24T10:20:35;23.10;73.10
35700;DHT22;21818;51.078;12.108;2023-07-24T10:23:02;23.10;73.10
35700;DHT22;21818;51.078;12.108;2023-07-24T10:25:35;23.10;73.10
35700;DHT22;21818;51.078;12.108;2023-07-24T10:30:31;23.20;73.60
35700;DHT22;21818;51.078;12.108;2023-07-24T10:33:21;23.10;73.10
35700;DHT22;21818;51.078;12.108;2023-07-24T10:36:02;23.20;73.10
35700;DHT22;21818;51.078;12.108;2023-07-24T10:38:42;23.20;73.10
35700;DHT22;21818;51.078;12.108;2023-07-24T10:41:09;23.20;73.10
35700;DHT22;21818;51.078;12.108;2023-07-24T10:43:49;23.20;73.10
35700;DHT22;21818;51.078;12.108;2023-07-24T10:46:18;23.20;73.10
35700;DHT22;21818;51.078;12.108;2023-07-24T10:48:46;23.20;73.10
35700;DHT22;21818;51.078;12.108;2023-07-24T10:51:12;23.20;73.00
35700;DHT22;21818;51.078;12.108;2023-07-24T10:53:50;23.30;73.10
35700;DHT22;21818;51.078;12.108;2023-07-24T10:56:16;23.20;73.00
35700;DHT22;21818;51.078;12.108;2023-07-24T10:58:42;23.20;73.00
35700;DHT22;21818;51.078;12.108;2023-07-24T11:01:08;23.20;73.00
35700;DHT22;21818;51.078;12.108;2023-07-24T11:03:38;23.20;72.90
35700;DHT22;21818;51.078;12.108;2023-07-24T11:06:05;23.30;73.00
35700;DHT22;21818;51.078;12.108;2023-07-24T11:08:37;23.30;73.00
35700;DHT22;21818;51.078;12.108;2023-07-24T11:11:05;23.20;72.90
35700;DHT22;21818;51.078;12.108;2023-07-24T11:13:31;23.30;72.90
35700;DHT22;21818;51.078;12.108;2023-07-24T11:16:07;23.30;72.90
35700;DHT22;21818;51.078;12.108;2023-07-24T11:18:33;23.30;72.90
35700;DHT22;21818;51.078;12.108;2023-07-24T11:21:08;23.30;72.90
35700;DHT22;21818;51.078;12.108;2023-07-24T11:23:35;23.30;72.90
35700;DHT22;21818;51.078;12.108;2023-07-24T11:26:01;23.30;72.90
35700;DHT22;21818;51.078;12.108;2023-07-24T11:28:39;23.30;72.80
35700;DHT22;21818;51.078;12.108;2023-07-24T11:31:04;23.30;72.80
35700;DHT22;21818;51.078;12.108;2023-07-24T11:33:30;23.40;72.80
35700;DHT22;21818;51.078;12.108;2023-07-24T11:35:56;23.30;72.80
35700;DHT22;21818;51.078;12.108;2023-07-24T11:38:22;23.30;72.70
35700;DHT22;21818;51.078;12.108;2023-07-24T11:40:47;23.30;72.70
35700;DHT22;21818;51.078;12.108;2023-07-24T11:43:18;23.40;73.00
35700;DHT22;21818;51.078;12.108;2023-07-24T11:45:44;23.30;72.70
35700;DHT22;21818;51.078;12.108;2023-07-24T11:48:11;23.30;72.70
35700;DHT22;21818;51.078;12.108;2023-07-24T11:50:51;23.30;72.70
35700;DHT22;21818;51.078;12.108;2023-07-24T11:53:30;23.40;72.70
35700;DHT22;21818;51.078;12.108;2023-07-24T11:55:59;23.40;72.70
35700;DHT22;21818;51.078;12.108;2023-07-24T11:58:29;23.40;72.70
35700;DHT22;21818;51.078;12.108;2023-07-24T12:00:55;23.40;72.70
35700;DHT22;21818;51.078;12.108;2023-07-24T12:03:24;23.40;72.70
35700;DHT22;21818;51.078;12.108;2023-07-24T12:05:50;23.40;72.60
35700;DHT22;21818;51.078;12.108;2023-07-24T12:08:16;23.40;72.60
35700;DHT22;21818;51.078;12.108;2023-07-24T12:10:44;23.40;72.60
35700;DHT22;21818;51.078;12.108;2023-07-24T12:13:09;23.40;72.60
35700;DHT22;21818;51.078;12.108;2023-07-24T12:15:35;23.40;72.60
35700;DHT22;21818;51.078;12.108;2023-07-24T12:18:03;23.40;72.60
35700;DHT22;21818;51.078;12.108;2023-07-24T12:20:29;23.40;72.60
35700;DHT22;21818;51.078;12.108;2023-07-24T12:22:54;23.50;72.60
35700;DHT22;21818;51.078;12.108;2023-07-24T12:25:20;23.40;72.50
35700;DHT22;21818;51.078;12.108;2023-07-24T12:27:46;23.40;72.50
35700;DHT22;21818;51.078;12.108;2023-07-24T12:30:12;23.40;72.50
35700;DHT22;21818;51.078;12.108;2023-07-24T12:32:38;23.50;72.50
35700;DHT22;21818;51.078;12.108;2023-07-24T12:35:04;23.50;72.50
35700;DHT22;21818;51.078;12.108;2023-07-24T12:37:30;23.50;72.50
35700;DHT22;21818;51.078;12.108;2023-07-24T12:39:56;23.50;72.50
35700;DHT22;21818;51.078;12.108;2023-07-24T12:42:21;23.50;72.40
35700;DHT22;21818;51.078;12.108;2023-07-24T12:44:47;23.50;72.40
35700;DHT22;21818;51.078;12.108;2023-07-24T12:47:13;23.50;72.40
35700;DHT22;21818;51.078;12.108;2023-07-24T12:49:38;23.50;72.40
35700;DHT22;21818;51.078;12.108;2023-07-24T12:52:04;23.50;72.40
35700;DHT22;21818;51.078;12.108;2023-07-24T12:54:31;23.50;72.30
35700;DHT22;21818;51.078;12.108;2023-07-24T12:56:57;23.50;72.40
35700;DHT22;21818;51.078;12.108;2023-07-24T12:59:22;23.50;72.30
35700;DHT22;21818;51.078;12.108;2023-07-24T13:01:48;23.50;72.30
35700;DHT22;21818;51.078;12.108;2023-07-24T13:04:14;23.50;72.30
35700;DHT22;21818;51.078;12.108;2023-07-24T13:06:39;23.60;72.40
35700;DHT22;21818;51.078;12.108;2023-07-24T13:09:05;23.60;72.30
35700;DHT22;21818;51.078;12.108;2023-07-24T13:11:31;23.60;72.30
35700;DHT22;21818;51.078;12.108;2023-07-24T13:13:57;23.60;72.30
35700;DHT22;21818;51.078;12.108;2023-07-24T13:16:23;23.60;72.30
35700;DHT22;21818;51.078;12.108;2023-07-24T13:18:48;23.60;72.30
35700;DHT22;21818;51.078;12.108;2023-07-24T13:21:14;23.60;72.20
35700;DHT22;21818;51.078;12.108;2023-07-24T13:23:40;23.60;72.20
35700;DHT22;21818;51.078;12.108;2023-07-24T13:26:06;23.60;72.20
35700;DHT22;21818;51.078;12.108;2023-07-24T13:28:33;23.60;72.20
35700;DHT22;21818;51.078;12.108;2023-07-24T13:30:59;23.60;72.70
35700;DHT22;21818;51.078;12.108;2023-07-24T13:33:25;23.60;72.20
35700;DHT22;21818;51.078;12.108;2023-07-24T13:35:50;23.70;72.20
35700;DHT22;21818;51.078;12.108;2023-07-24T13:38:16;23.70;72.20
35700;DHT22;21818;51.078;12.108;2023-07-24T13:40:42;23.60;72.10
35700;DHT22;21818;51.078;12.108;2023-07-24T13:43:08;23.60;72.10
35700;DHT22;21818;51.078;12.108;2023-07-24T13:45:33;23.70;72.10
35700;DHT22;21818;51.078;12.108;2023-07-24T13:47:59;23.70;72.10
35700;DHT22;21818;51.078;12.108;2023-07-24T13:50:25;23.70;72.10
35700;DHT22;21818;51.078;12.108;2023-07-24T13:52:50;23.70;72.10
35700;DHT22;21818;51.078;12.108;2023-07-24T13:55:16;23.70;72.10
35700;DHT22;21818;51.078;12.108;2023-07-24T13:57:42;23.70;72.00
35700;DHT22;21818;51.078;12.108;2023-07-24T14:00:08;23.70;72.10
35700;DHT22;21818;51.078;12.108;2023-07-24T14:02:33;23.70;72.00
35700;DHT22;21818;51.078;12.108;2023-07-24T14:04:59;23.70;72.00
35700;DHT22;21818;51.078;12.108;2023-07-24T14:07:24;23.70;72.00
35700;DHT22;21818;51.078;12.108;2023-07-24T14:09:50;23.70;72.00
35700;DHT22;21818;51.078;12.108;2023-07-24T14:12:15;23.70;72.00
35700;DHT22;21818;51.078;12.108;2023-07-24T14:14:41;23.70;72.00
35700;DHT22;21818;51.078;12.108;2023-07-24T14:17:07;23.80;72.00
35700;DHT22;21818;51.078;12.108;2023-07-24T14:19:33;23.70;72.50
35700;DHT22;21818;51.078;12.108;2023-07-24T14:21:58;23.80;72.20
35700;DHT22;21818;51.078;12.108;2023-07-24T14:24:24;23.80;72.00
35700;DHT22;21818;51.078;12.108;2023-07-24T14:26:49;23.70;71.90
35700;DHT22;21818;51.078;12.108;2023-07-24T14:29:15;23.70;71.90
35700;DHT22;21818;51.078;12.108;2023-07-24T14:31:43;23.80;71.90
35700;DHT22;21818;51.078;12.108;2023-07-24T14:34:09;23.80;71.90
35700;DHT22;21818;51.078;12.108;2023-07-24T14:36:36;23.80;71.90
35700;DHT22;21818;51.078;12.108;2023-07-24T14:39:03;23.80;71.90
35700;DHT22;21818;51.078;12.108;2023-07-24T14:41:28;23.80;71.90
35700;DHT22;21818;51.078;12.108;2023-07-24T14:43:54;23.80;71.90
35700;DHT22;21818;51.078;12.108;2023-07-24T14:46:20;23.80;71.90
35700;DHT22;21818;51.078;12.108;2023-07-24T14:48:46;23.80;71.90
35700;DHT22;21818;51.078;12.108;2023-07-24T14:51:11;23.80;71.90
35700;DHT22;21818;51.078;12.108;2023-07-24T14:53:37;23.80;71.80
35700;DHT22;21818;51.078;12.108;2023-07-24T14:56:03;23.90;71.90
35700;DHT22;21818;51.078;12.108;2023-07-24T14:58:29;23.90;71.80
35700;DHT22;21818;51.078;12.108;2023-07-24T15:00:55;23.90;71.80
35700;DHT22;21818;51.078;12.108;2023-07-24T15:03:21;23.90;71.80
35700;DHT22;21818;51.078;12.108;2023-07-24T15:05:46;23.90;71.80
35700;DHT22;21818;51.078;12.108;2023-07-24T15:08:12;23.90;71.70
35700;DHT22;21818;51.078;12.108;2023-07-24T15:10:38;23.90;71.70
35700;DHT22;21818;51.078;12.108;2023-07-24T15:13:03;23.90;71.70
35700;DHT22;21818;51.078;12.108;2023-07-24T15:15:29;23.90;71.70
35700;DHT22;21818;51.078;12.108;2023-07-24T15:17:55;23.90;71.60
35700;DHT22;21818;51.078;12.108;2023-07-24T15:20:21;23.90;71.60